sensor_id;sensor_type;location;lat;lon;timestamp;temperature;humidity
16974;DHT22;8603;46.944;7.412;2023-09-18T00:01:51;16.90;99.90
16974;DHT22;8603;46.944;7.412;2023-09-18T00:04:23;16.90;99.90
16974;DHT22;8603;46.944;7.412;2023-09-18T00:07:12;16.90;99.90
16974;DHT22;8603;46.944;7.412;2023-09-18T00:10:08;16.90;99.90
16974;DHT22;8603;46.944;7.412;2023-09-18T00:12:34;16.90;99.90
16974;DHT22;8603;46.944;7.412;2023-09-18T00:15:15;16.80;99.90
16974;DHT22;8603;46.944;7.412;2023-09-18T00:18:05;16.80;99.90
16974;DHT22;8603;46.944;7.412;2023-09-18T00:20:37;16.80;99.90
16974;DHT22;8603;46.944;7.412;2023-09-18T00:23:02;16.70;99.90
16974;DHT22;8603;46.944;7.412;2023-09-18T00:25:31;16.70;99.90
16974;DHT22;8603;46.944;7.412;2023-09-18T00:28:01;16.60;99.90
16974;DHT22;8603;46.944;7.412;2023-09-18T00:30:28;16.60;99.90
16974;DHT22;8603;46.944;7.412;2023-09-18T00:42:58;16.40;99.90
16974;DHT22;8603;46.944;7.412;2023-09-18T00:45:25;16.40;99.90
16974;DHT22;8603;46.944;7.412;2023-09-18T00:47:52;16.30;99.90
16974;DHT22;8603;46.944;7.412;2023-09-18T00:50:36;16.30;99.90
16974;DHT22;8603;46.944;7.412;2023-09-18T00:53:16;16.20;99.90
16974;DHT22;8603;46.944;7.412;2023-09-18T00:55:43;16.30;99.90
16974;DHT22;8603;46.944;7.412;2023-09-18T00:58:09;16.20;99.90
16974;DHT22;8603;46.944;7.412;2023-09-18T01:00:35;16.20;99.90
16974;DHT22;8603;46.944;7.412;2023-09-18T01:03:04;16.30;99.90
16974;DHT22;8603;46.944;7.412;2023-09-18T01:05:35;16.30;99.90
16974;DHT22;8603;46.944;7.412;2023-09-18T01:08:02;16.30;99.90
16974;DHT22;8603;46.944;7.412;2023-09-18T01:10:39;16.40;99.90
16974;DHT22;8603;46.944;7.412;2023-09-18T01:13:12;16.40;99.90
16974;DHT22;8603;46.944;7.412;2023-09-18T01:15:48;16.40;99.90
16974;DHT22;8603;46.944;7.412;2023-09-18T01:18:16;16.50;99.90
16974;DHT22;8603;46.944;7.412;2023-09-18T01:20:43;16.50;99.90
16974;DHT22;8603;46.944;7.412;2023-09-18T01:23:12;16.60;99.90
16974;DHT22;8603;46.944;7.412;2023-09-18T01:25:38;16.70;99.90
16974;DHT22;8603;46.944;7.412;2023-09-18T01:28:04;16.90;99.90
16974;DHT22;8603;46.944;7.412;2023-09-18T01:30:29;17.00;99.90
16974;DHT22;8603;46.944;7.412;2023-09-18T01:32:59;17.10;99.90
16974;DHT22;8603;46.944;7.412;2023-09-18T01:35:33;17.20;99.90
16974;DHT22;8603;46.944;7.412;2023-09-18T01:38:22;17.30;99.90
16974;DHT22;8603;46.944;7.412;2023-09-18T01:40:52;17.30;99.90
16974;DHT22;8603;46.944;7.412;2023-09-18T01:43:21;17.40;99.90
16974;DHT22;8603;46.944;7.412;2023-09-18T01:45:47;17.60;99.90
16974;DHT22;8603;46.944;7.412;2023-09-18T01:48:13;17.70;99.90
16974;DHT22;8603;46.944;7.412;2023-09-18T01:50:39;17.80;99.90
16974;DHT22;8603;46.944;7.412;2023-09-18T01:53:06;17.80;99.90
16974;DHT22;8603;46.944;7.412;2023-09-18T01:55:34;17.90;99.90
16974;DHT22;8603;46.944;7.412;2023-09-18T01:58:00;18.00;99.90
16974;DHT22;8603;46.944;7.412;2023-09-18T02:00:28;18.00;99.90
16974;DHT22;8603;46.944;7.412;2023-09-18T02:02:54;18.10;99.90
16974;DHT22;8603;46.944;7.412;2023-09-18T02:08:18;18.20;99.90
16974;DHT22;8603;46.944;7.412;2023-09-18T02:10:46;18.20;99.90
16974;DHT22;8603;46.944;7.412;2023-09-18T02:13:12;18.20;99.90
16974;DHT22;8603;46.944;7.412;2023-09-18T02:15:40;18.30;99.90
16974;DHT22;8603;46.944;7.412;2023-09-18T02:18:19;18.30;99.90
16974;DHT22;8603;46.944;7.412;2023-09-18T02:20:53;18.30;99.90
16974;DHT22;8603;46.944;7.412;2023-09-18T02:23:18;18.40;99.90
16974;DHT22;8603;46.944;7.412;2023-09-18T02:25:58;18.50;99.90
16974;DHT22;8603;46.944;7.412;2023-09-18T02:28:34;18.50;99.90
16974;DHT22;8603;46.944;7.412;2023-09-18T02:31:05;18.50;99.90
16974;DHT22;8603;46.944;7.412;2023-09-18T02:33:34;18.50;99.90
16974;DHT22;8603;46.944;7.412;2023-09-18T02:36:02;18.60;99.90
16974;DHT22;8603;46.944;7.412;2023-09-18T02:42:10;18.50;99.90
16974;DHT22;8603;46.944;7.412;2023-09-18T02:44:38;18.40;99.90
16974;DHT22;8603;46.944;7.412;2023-09-18T02:47:07;18.30;99.90
16974;DHT22;8603;46.944;7.412;2023-09-18T02:49:33;18.30;99.90
16974;DHT22;8603;46.944;7.412;2023-09-18T02:52:02;18.20;99.90
16974;DHT22;8603;46.944;7.412;2023-09-18T02:54:28;18.20;99.90
16974;DHT22;8603;46.944;7.412;2023-09-18T02:56:54;18.20;99.90
16974;DHT22;8603;46.944;7.412;2023-09-18T02:59:23;18.10;99.90
16974;DHT22;8603;46.944;7.412;2023-09-18T03:01:52;18.00;99.90
16974;DHT22;8603;46.944;7.412;2023-09-18T03:04:17;17.90;99.90
16974;DHT22;8603;46.944;7.412;2023-09-18T03:06:43;17.80;99.90
16974;DHT22;8603;46.944;7.412;2023-09-18T03:09:09;17.70;99.90
16974;DHT22;8603;46.944;7.412;2023-09-18T03:11:37;17.60;99.90
16974;DHT22;8603;46.944;7.412;2023-09-18T03:17:25;17.40;99.90
16974;DHT22;8603;46.944;7.412;2023-09-18T03:20:03;17.30;99.90
16974;DHT22;8603;46.944;7.412;2023-09-18T03:22:34;17.20;99.90
16974;DHT22;8603;46.944;7.412;2023-09-18T03:25:12;17.20;99.90
16974;DHT22;8603;46.944;7.412;2023-09-18T03:28:27;17.10;99.90
16974;DHT22;8603;46.944;7.412;2023-09-18T03:31:08;17.10;99.90
16974;DHT22;8603;46.944;7.412;2023-09-18T03:37:13;17.10;99.90
16974;DHT22;8603;46.944;7.412;2023-09-18T03:39:38;17.00;99.90
16974;DHT22;8603;46.944;7.412;2023-09-18T03:42:04;17.00;99.90
16974;DHT22;8603;46.944;7.412;2023-09-18T03:53:34;17.20;99.90
16974;DHT22;8603;46.944;7.412;2023-09-18T03:56:00;17.20;99.90
16974;DHT22;8603;46.944;7.412;2023-09-18T03:58:43;17.20;99.90
16974;DHT22;8603;46.944;7.412;2023-09-18T04:04:55;17.20;99.90
16974;DHT22;8603;46.944;7.412;2023-09-18T04:11:26;17.30;99.90
16974;DHT22;8603;46.944;7.412;2023-09-18T04:14:26;17.30;99.90
16974;DHT22;8603;46.944;7.412;2023-09-18T04:17:18;17.30;99.90
16974;DHT22;8603;46.944;7.412;2023-09-18T04:19:46;17.30;99.90
16974;DHT22;8603;46.944;7.412;2023-09-18T04:22:18;17.40;99.90
16974;DHT22;8603;46.944;7.412;2023-09-18T04:28:06;17.40;99.90
16974;DHT22;8603;46.944;7.412;2023-09-18T04:30:32;17.40;99.90
16974;DHT22;8603;46.944;7.412;2023-09-18T04:33:28;17.40;99.90
16974;DHT22;8603;46.944;7.412;2023-09-18T04:36:03;17.40;99.90
16974;DHT22;8603;46.944;7.412;2023-09-18T04:39:06;17.40;99.90
16974;DHT22;8603;46.944;7.412;2023-09-18T04:41:50;17.40;99.90
16974;DHT22;8603;46.944;7.412;2023-09-18T04:44:16;17.40;99.90
16974;DHT22;8603;46.944;7.412;2023-09-18T04:46:55;17.40;99.90
16974;DHT22;8603;46.944;7.412;2023-09-18T04:49:47;17.40;99.90
16974;DHT22;8603;46.944;7.412;2023-09-18T04:52:21;17.40;99.90
16974;DHT22;8603;46.944;7.412;2023-09-18T04:54:51;17.40;99.90
16974;DHT22;8603;46.944;7.412;2023-09-18T04:58:15;17.40;99.90
16974;DHT22;8603;46.944;7.412;2023-09-18T05:01:05;17.40;99.90
16974;DHT22;8603;46.944;7.412;2023-09-18T05:03:33;17.50;99.90
16974;DHT22;8603;46.944;7.412;2023-09-18T05:05:59;17.60;99.90
16974;DHT22;8603;46.944;7.412;2023-09-18T05:08:25;17.60;99.90
16974;DHT22;8603;46.944;7.412;2023-09-18T05:10:51;17.60;99.90
16974;DHT22;8603;46.944;7.412;2023-09-18T05:13:16;17.60;99.90
16974;DHT22;8603;46.944;7.412;2023-09-18T05:15:42;17.70;99.90
16974;DHT22;8603;46.944;7.412;2023-09-18T05:18:08;17.70;99.90
16974;DHT22;8603;46.944;7.412;2023-09-18T05:20:34;17.70;99.90
16974;DHT22;8603;46.944;7.412;2023-09-18T05:23:00;17.70;99.90
16974;DHT22;8603;46.944;7.412;2023-09-18T05:25:28;17.70;99.90
16974;DHT22;8603;46.944;7.412;2023-09-18T05:27:58;17.70;99.90
16974;DHT22;8603;46.944;7.412;2023-09-18T05:30:29;17.70;99.90
16974;DHT22;8603;46.944;7.412;2023-09-18T05:32:56;17.70;99.90
16974;DHT22;8603;46.944;7.412;2023-09-18T05:35:22;17.70;99.90
16974;DHT22;8603;46.944;7.412;2023-09-18T05:37:52;17.70;99.90
16974;DHT22;8603;46.944;7.412;2023-09-18T05:40:18;17.70;99.90
16974;DHT22;8603;46.944;7.412;2023-09-18T05:42:44;17.60;99.90
16974;DHT22;8603;46.944;7.412;2023-09-18T05:45:11;17.70;99.90
16974;DHT22;8603;46.944;7.412;2023-09-18T05:47:40;17.60;99.90
16974;DHT22;8603;46.944;7.412;2023-09-18T05:50:07;17.50;99.90
16974;DHT22;8603;46.944;7.412;2023-09-18T05:52:33;17.40;99.90
16974;DHT22;8603;46.944;7.412;2023-09-18T05:55:04;17.40;99.90
16974;DHT22;8603;46.944;7.412;2023-09-18T05:57:30;17.30;99.90
16974;DHT22;8603;46.944;7.412;2023-09-18T05:59:55;17.20;99.90
16974;DHT22;8603;46.944;7.412;2023-09-18T06:02:21;17.20;99.90
16974;DHT22;8603;46.944;7.412;2023-09-18T06:04:47;17.20;99.90
16974;DHT22;8603;46.944;7.412;2023-09-18T06:07:12;17.20;99.90
16974;DHT22;8603;46.944;7.412;2023-09-18T06:09:39;17.20;99.90
16974;DHT22;8603;46.944;7.412;2023-09-18T06:12:05;17.10;99.90
16974;DHT22;8603;46.944;7.412;2023-09-18T06:14:31;17.10;99.90
16974;DHT22;8603;46.944;7.412;2023-09-18T06:17:18;17.00;99.90
16974;DHT22;8603;46.944;7.412;2023-09-18T06:19:50;17.00;99.90
16974;DHT22;8603;46.944;7.412;2023-09-18T06:22:17;17.00;99.90
16974;DHT22;8603;46.944;7.412;2023-09-18T06:24:43;16.90;99.90
16974;DHT22;8603;46.944;7.412;2023-09-18T06:27:12;16.80;99.90
16974;DHT22;8603;46.944;7.412;2023-09-18T06:29:44;16.80;99.90
16974;DHT22;8603;46.944;7.412;2023-09-18T06:32:11;16.70;99.90
16974;DHT22;8603;46.944;7.412;2023-09-18T06:34:41;16.70;99.90
16974;DHT22;8603;46.944;7.412;2023-09-18T06:37:09;16.70;99.90
16974;DHT22;8603;46.944;7.412;2023-09-18T06:39:38;16.70;99.90
16974;DHT22;8603;46.944;7.412;2023-09-18T06:42:07;16.60;99.90
16974;DHT22;8603;46.944;7.412;2023-09-18T06:44:35;16.60;99.90
16974;DHT22;8603;46.944;7.412;2023-09-18T06:47:01;16.60;99.90
16974;DHT22;8603;46.944;7.412;2023-09-18T06:49:26;16.60;99.90
16974;DHT22;8603;46.944;7.412;2023-09-18T06:51:59;16.60;99.90
16974;DHT22;8603;46.944;7.412;2023-09-18T06:54:27;16.60;99.90
16974;DHT22;8603;46.944;7.412;2023-09-18T06:56:52;16.60;99.90
16974;DHT22;8603;46.944;7.412;2023-09-18T06:59:18;16.60;99.90
16974;DHT22;8603;46.944;7.412;2023-09-18T07:01:44;16.60;99.90
16974;DHT22;8603;46.944;7.412;2023-09-18T07:04:09;16.60;99.90
16974;DHT22;8603;46.944;7.412;2023-09-18T07:06:35;16.60;99.90
16974;DHT22;8603;46.944;7.412;2023-09-18T07:09:04;16.60;99.90
16974;DHT22;8603;46.944;7.412;2023-09-18T07:11:34;16.50;99.90
16974;DHT22;8603;46.944;7.412;2023-09-18T07:14:03;16.50;99.90
16974;DHT22;8603;46.944;7.412;2023-09-18T07:16:34;16.50;99.90
16974;DHT22;8603;46.944;7.412;2023-09-18T07:19:14;16.50;99.90
16974;DHT22;8603;46.944;7.412;2023-09-18T07:21:45;16.40;99.90
16974;DHT22;8603;46.944;7.412;2023-09-18T07:24:14;16.40;99.90
16974;DHT22;8603;46.944;7.412;2023-09-18T07:26:57;16.40;99.90
16974;DHT22;8603;46.944;7.412;2023-09-18T07:29:31;16.40;99.90
16974;DHT22;8603;46.944;7.412;2023-09-18T07:32:12;16.40;99.90
16974;DHT22;8603;46.944;7.412;2023-09-18T07:34:49;16.40;99.90
16974;DHT22;8603;46.944;7.412;2023-09-18T07:37:15;16.40;99.90
16974;DHT22;8603;46.944;7.412;2023-09-18T07:39:41;16.40;99.90
16974;DHT22;8603;46.944;7.412;2023-09-18T07:42:08;16.40;99.90
16974;DHT22;8603;46.944;7.412;2023-09-18T07:44:34;16.40;99.90
16974;DHT22;8603;46.944;7.412;2023-09-18T07:46:59;16.40;99.90
16974;DHT22;8603;46.944;7.412;2023-09-18T07:49:27;16.50;99.90
16974;DHT22;8603;46.944;7.412;2023-09-18T07:51:52;16.60;99.90
16974;DHT22;8603;46.944;7.412;2023-09-18T07:54:18;16.60;99.90
16974;DHT22;8603;46.944;7.412;2023-09-18T07:56:43;16.50;99.90
16974;DHT22;8603;46.944;7.412;2023-09-18T07:59:09;16.60;99.90
16974;DHT22;8603;46.944;7.412;2023-09-18T08:01:49;16.60;99.90
16974;DHT22;8603;46.944;7.412;2023-09-18T08:04:32;16.60;99.90
16974;DHT22;8603;46.944;7.412;2023-09-18T08:07:23;16.60;99.90
16974;DHT22;8603;46.944;7.412;2023-09-18T08:14:06;16.70;99.90
16974;DHT22;8603;46.944;7.412;2023-09-18T08:17:03;16.80;99.90
16974;DHT22;8603;46.944;7.412;2023-09-18T08:20:43;16.80;99.90
16974;DHT22;8603;46.944;7.412;2023-09-18T08:27:33;16.70;99.90
16974;DHT22;8603;46.944;7.412;2023-09-18T08:30:14;16.70;99.90
16974;DHT22;8603;46.944;7.412;2023-09-18T08:32:59;16.80;99.90
16974;DHT22;8603;46.944;7.412;2023-09-18T08:40:03;16.80;99.90
16974;DHT22;8603;46.944;7.412;2023-09-18T08:45:57;16.70;99.90
16974;DHT22;8603;46.944;7.412;2023-09-18T08:48:29;16.60;99.90
16974;DHT22;8603;46.944;7.412;2023-09-18T08:51:03;16.60;99.90
16974;DHT22;8603;46.944;7.412;2023-09-18T08:53:34;16.60;99.90
16974;DHT22;8603;46.944;7.412;2023-09-18T08:56:04;16.60;99.90
16974;DHT22;8603;46.944;7.412;2023-09-18T08:58:36;16.60;99.90
16974;DHT22;8603;46.944;7.412;2023-09-18T09:01:05;16.60;99.90
16974;DHT22;8603;46.944;7.412;2023-09-18T09:03:37;16.60;99.90
16974;DHT22;8603;46.944;7.412;2023-09-18T09:06:03;16.60;99.90
16974;DHT22;8603;46.944;7.412;2023-09-18T09:08:29;16.60;99.90
16974;DHT22;8603;46.944;7.412;2023-09-18T09:10:55;16.60;99.90
16974;DHT22;8603;46.944;7.412;2023-09-18T09:13:23;16.70;99.90
16974;DHT22;8603;46.944;7.412;2023-09-18T09:15:55;16.70;99.90
16974;DHT22;8603;46.944;7.412;2023-09-18T09:18:22;16.70;99.90
16974;DHT22;8603;46.944;7.412;2023-09-18T09:21:02;16.70;99.90
16974;DHT22;8603;46.944;7.412;2023-09-18T09:23:50;16.70;99.90
16974;DHT22;8603;46.944;7.412;2023-09-18T09:26:19;16.70;99.90
16974;DHT22;8603;46.944;7.412;2023-09-18T09:28:46;16.70;99.90
16974;DHT22;8603;46.944;7.412;2023-09-18T09:31:28;16.80;99.90
16974;DHT22;8603;46.944;7.412;2023-09-18T09:33:55;16.80;99.90
16974;DHT22;8603;46.944;7.412;2023-09-18T09:36:22;16.80;99.90
16974;DHT22;8603;46.944;7.412;2023-09-18T09:38:48;16.80;99.90
16974;DHT22;8603;46.944;7.412;2023-09-18T09:41:19;16.80;99.90
16974;DHT22;8603;46.944;7.412;2023-09-18T09:43:45;16.90;99.90
16974;DHT22;8603;46.944;7.412;2023-09-18T09:46:16;16.90;99.90
16974;DHT22;8603;46.944;7.412;2023-09-18T09:51:26;16.90;99.90
16974;DHT22;8603;46.944;7.412;2023-09-18T09:54:12;17.00;99.90
16974;DHT22;8603;46.944;7.412;2023-09-18T09:56:45;16.90;99.90
16974;DHT22;8603;46.944;7.412;2023-09-18T09:59:14;16.90;99.90
16974;DHT22;8603;46.944;7.412;2023-09-18T10:01:40;16.90;99.90
16974;DHT22;8603;46.944;7.412;2023-09-18T10:04:15;17.00;99.90
16974;DHT22;8603;46.944;7.412;2023-09-18T10:06:58;17.00;99.90
16974;DHT22;8603;46.944;7.412;2023-09-18T10:09:28;16.90;99.90
16974;DHT22;8603;46.944;7.412;2023-09-18T10:11:56;17.00;99.90
16974;DHT22;8603;46.944;7.412;2023-09-18T10:14:37;16.90;99.90
16974;DHT22;8603;46.944;7.412;2023-09-18T10:17:20;16.90;99.90
16974;DHT22;8603;46.944;7.412;2023-09-18T10:20:24;16.90;99.90
16974;DHT22;8603;46.944;7.412;2023-09-18T10:23:05;16.80;99.90
16974;DHT22;8603;46.944;7.412;2023-09-18T10:25:38;16.70;99.90
16974;DHT22;8603;46.944;7.412;2023-09-18T10:28:04;16.60;99.90
16974;DHT22;8603;46.944;7.412;2023-09-18T10:30:33;16.50;99.90
16974;DHT22;8603;46.944;7.412;2023-09-18T10:33:03;16.40;99.90
16974;DHT22;8603;46.944;7.412;2023-09-18T10:36:01;16.40;99.90
16974;DHT22;8603;46.944;7.412;2023-09-18T10:38:29;16.40;99.90
16974;DHT22;8603;46.944;7.412;2023-09-18T10:43:53;16.40;99.90
16974;DHT22;8603;46.944;7.412;2023-09-18T10:46:20;16.40;99.90
16974;DHT22;8603;46.944;7.412;2023-09-18T10:48:46;16.50;99.90
16974;DHT22;8603;46.944;7.412;2023-09-18T10:51:13;16.70;99.90
16974;DHT22;8603;46.944;7.412;2023-09-18T10:53:47;16.80;99.90
16974;DHT22;8603;46.944;7.412;2023-09-18T11:03:14;17.10;99.90
16974;DHT22;8603;46.944;7.412;2023-09-18T11:06:17;17.30;99.90
16974;DHT22;8603;46.944;7.412;2023-09-18T11:08:49;17.40;99.90
16974;DHT22;8603;46.944;7.412;2023-09-18T11:11:21;17.60;99.90
16974;DHT22;8603;46.944;7.412;2023-09-18T11:14:01;17.80;99.90
16974;DHT22;8603;46.944;7.412;2023-09-18T11:16:49;17.90;99.90
16974;DHT22;8603;46.944;7.412;2023-09-18T11:19:18;18.20;99.90
16974;DHT22;8603;46.944;7.412;2023-09-18T11:21:47;18.50;99.90
16974;DHT22;8603;46.944;7.412;2023-09-18T11:24:21;18.70;99.90
16974;DHT22;8603;46.944;7.412;2023-09-18T11:26:49;19.10;99.90
16974;DHT22;8603;46.944;7.412;2023-09-18T11:29:22;19.20;99.90
16974;DHT22;8603;46.944;7.412;2023-09-18T11:31:50;19.30;99.90
16974;DHT22;8603;46.944;7.412;2023-09-18T11:34:34;19.40;99.90
16974;DHT22;8603;46.944;7.412;2023-09-18T11:37:21;19.60;99.90
16974;DHT22;8603;46.944;7.412;2023-09-18T11:50:52;19.50;99.90
16974;DHT22;8603;46.944;7.412;2023-09-18T11:53:20;19.40;99.90
16974;DHT22;8603;46.944;7.412;2023-09-18T11:55:56;19.40;99.90
16974;DHT22;8603;46.944;7.412;2023-09-18T11:58:22;19.40;99.90
16974;DHT22;8603;46.944;7.412;2023-09-18T12:07:57;18.90;99.90
16974;DHT22;8603;46.944;7.412;2023-09-18T12:40:50;18.30;99.90
16974;DHT22;8603;46.944;7.412;2023-09-18T12:43:17;18.30;99.90
16974;DHT22;8603;46.944;7.412;2023-09-18T12:49:18;18.30;99.90
16974;DHT22;8603;46.944;7.412;2023-09-18T12:52:02;18.10;99.90
16974;DHT22;8603;46.944;7.412;2023-09-18T12:54:50;18.10;99.90
16974;DHT22;8603;46.944;7.412;2023-09-18T12:57:39;18.20;99.90
16974;DHT22;8603;46.944;7.412;2023-09-18T13:00:09;18.20;99.90
16974;DHT22;8603;46.944;7.412;2023-09-18T13:02:44;18.20;99.90
16974;DHT22;8603;46.944;7.412;2023-09-18T13:07:46;18.30;99.90
16974;DHT22;8603;46.944;7.412;2023-09-18T13:10:12;18.20;99.90
16974;DHT22;8603;46.944;7.412;2023-09-18T13:12:57;18.30;99.90
16974;DHT22;8603;46.944;7.412;2023-09-18T13:15:32;18.40;99.90
16974;DHT22;8603;46.944;7.412;2023-09-18T13:18:11;18.50;99.90
16974;DHT22;8603;46.944;7.412;2023-09-18T13:20:38;18.70;99.90
16974;DHT22;8603;46.944;7.412;2023-09-18T13:23:05;18.90;99.90
16974;DHT22;8603;46.944;7.412;2023-09-18T13:25:49;19.00;99.90
16974;DHT22;8603;46.944;7.412;2023-09-18T13:28:16;19.10;99.90
16974;DHT22;8603;46.944;7.412;2023-09-18T13:31:24;19.10;99.90
16974;DHT22;8603;46.944;7.412;2023-09-18T13:34:00;19.10;99.90
16974;DHT22;8603;46.944;7.412;2023-09-18T13:36:34;18.90;99.90
16974;DHT22;8603;46.944;7.412;2023-09-18T13:39:00;18.70;99.90
16974;DHT22;8603;46.944;7.412;2023-09-18T13:41:26;18.40;99.90
16974;DHT22;8603;46.944;7.412;2023-09-18T13:43:52;18.20;99.90
16974;DHT22;8603;46.944;7.412;2023-09-18T13:46:29;18.10;99.90
16974;DHT22;8603;46.944;7.412;2023-09-18T13:52:32;17.90;99.90
16974;DHT22;8603;46.944;7.412;2023-09-18T14:01:27;17.90;99.90
16974;DHT22;8603;46.944;7.412;2023-09-18T14:20:48;18.10;99.90
16974;DHT22;8603;46.944;7.412;2023-09-18T14:23:14;18.10;99.90
16974;DHT22;8603;46.944;7.412;2023-09-18T14:28:15;18.10;99.90
16974;DHT22;8603;46.944;7.412;2023-09-18T14:51:46;18.40;99.90
16974;DHT22;8603;46.944;7.412;2023-09-18T14:54:40;18.60;99.90
16974;DHT22;8603;46.944;7.412;2023-09-18T14:57:09;18.70;99.90
16974;DHT22;8603;46.944;7.412;2023-09-18T14:59:40;18.80;99.90
16974;DHT22;8603;46.944;7.412;2023-09-18T15:02:15;18.90;99.90
16974;DHT22;8603;46.944;7.412;2023-09-18T15:11:46;18.90;99.90
16974;DHT22;8603;46.944;7.412;2023-09-18T15:14:12;18.90;99.90
16974;DHT22;8603;46.944;7.412;2023-09-18T15:16:38;19.00;99.90
16974;DHT22;8603;46.944;7.412;2023-09-18T15:19:28;18.90;99.90
16974;DHT22;8603;46.944;7.412;2023-09-18T15:22:16;19.00;99.90
16974;DHT22;8603;46.944;7.412;2023-09-18T15:28:26;18.90;99.90
16974;DHT22;8603;46.944;7.412;2023-09-18T15:30:54;18.90;99.90
16974;DHT22;8603;46.944;7.412;2023-09-18T15:33:23;18.90;99.90
16974;DHT22;8603;46.944;7.412;2023-09-18T15:36:00;18.90;99.90
16974;DHT22;8603;46.944;7.412;2023-09-18T15:38:27;18.90;99.90
16974;DHT22;8603;46.944;7.412;2023-09-18T15:41:08;18.90;99.90
16974;DHT22;8603;46.944;7.412;2023-09-18T15:43:34;18.80;99.90
16974;DHT22;8603;46.944;7.412;2023-09-18T15:46:00;18.80;99.90
16974;DHT22;8603;46.944;7.412;2023-09-18T15:48:28;18.80;99.90
16974;DHT22;8603;46.944;7.412;2023-09-18T15:51:03;18.70;99.90
16974;DHT22;8603;46.944;7.412;2023-09-18T15:53:39;18.70;99.90
16974;DHT22;8603;46.944;7.412;2023-09-18T15:56:05;18.70;99.90
16974;DHT22;8603;46.944;7.412;2023-09-18T15:58:34;18.60;99.90
16974;DHT22;8603;46.944;7.412;2023-09-18T16:01:01;18.60;99.90
16974;DHT22;8603;46.944;7.412;2023-09-18T16:03:29;18.60;99.90
16974;DHT22;8603;46.944;7.412;2023-09-18T16:05:55;18.60;99.90
16974;DHT22;8603;46.944;7.412;2023-09-18T16:08:21;18.60;99.90
16974;DHT22;8603;46.944;7.412;2023-09-18T16:10:55;18.60;99.90
16974;DHT22;8603;46.944;7.412;2023-09-18T16:13:20;18.70;99.90
16974;DHT22;8603;46.944;7.412;2023-09-18T16:15:46;18.80;99.90
16974;DHT22;8603;46.944;7.412;2023-09-18T16:18:14;18.80;99.90
16974;DHT22;8603;46.944;7.412;2023-09-18T16:20:40;18.90;99.90
16974;DHT22;8603;46.944;7.412;2023-09-18T16:23:05;18.90;99.90
16974;DHT22;8603;46.944;7.412;2023-09-18T16:25:31;18.90;99.90
16974;DHT22;8603;46.944;7.412;2023-09-18T16:27:57;18.90;99.90
16974;DHT22;8603;46.944;7.412;2023-09-18T16:30:26;18.90;99.90
16974;DHT22;8603;46.944;7.412;2023-09-18T16:32:53;18.90;99.90
16974;DHT22;8603;46.944;7.412;2023-09-18T16:35:19;18.90;99.90
16974;DHT22;8603;46.944;7.412;2023-09-18T16:37:45;18.90;99.90
16974;DHT22;8603;46.944;7.412;2023-09-18T16:40:15;18.90;99.90
16974;DHT22;8603;46.944;7.412;2023-09-18T16:42:47;18.80;99.90
16974;DHT22;8603;46.944;7.412;2023-09-18T16:45:23;18.70;99.90
16974;DHT22;8603;46.944;7.412;2023-09-18T16:47:58;18.70;99.90
16974;DHT22;8603;46.944;7.412;2023-09-18T16:50:33;18.60;99.90
16974;DHT22;8603;46.944;7.412;2023-09-18T16:52:59;18.50;99.90
16974;DHT22;8603;46.944;7.412;2023-09-18T16:58:47;18.50;99.90
16974;DHT22;8603;46.944;7.412;2023-09-18T17:01:27;18.40;99.90
16974;DHT22;8603;46.944;7.412;2023-09-18T17:04:10;18.30;99.90
16974;DHT22;8603;46.944;7.412;2023-09-18T17:06:40;18.20;99.90
16974;DHT22;8603;46.944;7.412;2023-09-18T17:09:14;18.20;99.90
16974;DHT22;8603;46.944;7.412;2023-09-18T17:15:41;18.00;99.90
16974;DHT22;8603;46.944;7.412;2023-09-18T17:27:44;17.50;99.90
16974;DHT22;8603;46.944;7.412;2023-09-18T17:30:43;17.30;99.90
16974;DHT22;8603;46.944;7.412;2023-09-18T17:33:12;17.20;99.90
16974;DHT22;8603;46.944;7.412;2023-09-18T17:35:40;17.10;99.90
16974;DHT22;8603;46.944;7.412;2023-09-18T17:38:16;17.00;99.90
16974;DHT22;8603;46.944;7.412;2023-09-18T17:40:43;16.90;99.90
16974;DHT22;8603;46.944;7.412;2023-09-18T17:43:18;16.80;99.90
16974;DHT22;8603;46.944;7.412;2023-09-18T17:45:45;16.70;99.90
16974;DHT22;8603;46.944;7.412;2023-09-18T17:48:10;16.60;99.90
16974;DHT22;8603;46.944;7.412;2023-09-18T17:50:37;16.50;99.90
16974;DHT22;8603;46.944;7.412;2023-09-18T17:53:03;16.40;99.90
16974;DHT22;8603;46.944;7.412;2023-09-18T17:55:28;16.30;99.90
16974;DHT22;8603;46.944;7.412;2023-09-18T17:57:54;16.30;99.90
16974;DHT22;8603;46.944;7.412;2023-09-18T18:00:20;16.20;99.90
16974;DHT22;8603;46.944;7.412;2023-09-18T18:02:46;16.10;99.90
16974;DHT22;8603;46.944;7.412;2023-09-18T18:05:12;16.00;99.90
16974;DHT22;8603;46.944;7.412;2023-09-18T18:07:38;15.90;99.90
16974;DHT22;8603;46.944;7.412;2023-09-18T18:10:06;15.80;99.90
16974;DHT22;8603;46.944;7.412;2023-09-18T18:12:33;15.70;99.90
16974;DHT22;8603;46.944;7.412;2023-09-18T18:14:59;15.70;99.90
16974;DHT22;8603;46.944;7.412;2023-09-18T18:17:24;15.60;99.90
16974;DHT22;8603;46.944;7.412;2023-09-18T18:19:50;15.50;99.90
16974;DHT22;8603;46.944;7.412;2023-09-18T18:22:16;15.50;99.90
16974;DHT22;8603;46.944;7.412;2023-09-18T18:24:41;15.40;99.90
16974;DHT22;8603;46.944;7.412;2023-09-18T18:27:15;15.50;99.90
16974;DHT22;8603;46.944;7.412;2023-09-18T18:29:42;15.30;99.90
16974;DHT22;8603;46.944;7.412;2023-09-18T18:32:08;15.20;99.90
16974;DHT22;8603;46.944;7.412;2023-09-18T18:34:34;15.20;99.90
16974;DHT22;8603;46.944;7.412;2023-09-18T18:36:59;15.10;99.90
16974;DHT22;8603;46.944;7.412;2023-09-18T18:39:25;15.10;99.90
16974;DHT22;8603;46.944;7.412;2023-09-18T18:41:51;15.10;99.90
16974;DHT22;8603;46.944;7.412;2023-09-18T18:44:16;15.00;99.90
16974;DHT22;8603;46.944;7.412;2023-09-18T18:46:42;15.00;99.90
16974;DHT22;8603;46.944;7.412;2023-09-18T18:49:08;15.00;99.90
16974;DHT22;8603;46.944;7.412;2023-09-18T18:51:33;15.00;99.90
16974;DHT22;8603;46.944;7.412;2023-09-18T18:54:00;15.00;99.90
16974;DHT22;8603;46.944;7.412;2023-09-18T18:56:34;15.00;99.90
16974;DHT22;8603;46.944;7.412;2023-09-18T18:59:03;15.00;99.90
16974;DHT22;8603;46.944;7.412;2023-09-18T19:01:28;15.10;99.90
16974;DHT22;8603;46.944;7.412;2023-09-18T19:03:55;15.10;99.90
16974;DHT22;8603;46.944;7.412;2023-09-18T19:06:21;15.10;99.90
16974;DHT22;8603;46.944;7.412;2023-09-18T19:08:47;15.10;99.90
16974;DHT22;8603;46.944;7.412;2023-09-18T19:11:13;15.10;99.90
16974;DHT22;8603;46.944;7.412;2023-09-18T19:13:39;15.10;99.90
16974;DHT22;8603;46.944;7.412;2023-09-18T19:16:06;15.00;99.90
16974;DHT22;8603;46.944;7.412;2023-09-18T19:18:32;15.10;99.90
16974;DHT22;8603;46.944;7.412;2023-09-18T19:20:59;15.10;99.90
16974;DHT22;8603;46.944;7.412;2023-09-18T19:23:25;15.10;99.90
16974;DHT22;8603;46.944;7.412;2023-09-18T19:25:54;15.00;99.90
16974;DHT22;8603;46.944;7.412;2023-09-18T19:28:20;15.20;99.90
16974;DHT22;8603;46.944;7.412;2023-09-18T19:30:47;15.20;99.90
16974;DHT22;8603;46.944;7.412;2023-09-18T19:33:14;15.10;99.90
16974;DHT22;8603;46.944;7.412;2023-09-18T19:35:41;15.10;99.90
16974;DHT22;8603;46.944;7.412;2023-09-18T19:38:07;15.10;99.90